createdAt,value
2019-03-19T00:01:08.760Z,18.52
2019-03-19T00:03:35.760Z,24.77
2019-03-19T00:06:03.870Z,16.45
2019-03-19T00:08:30.599Z,24.37
2019-03-19T00:10:57.230Z,18.07
2019-03-19T00:13:24.971Z,22.52
2019-03-19T00:15:51.591Z,24.75
2019-03-19T00:18:18.211Z,19.62
2019-03-19T00:20:45.139Z,16.67
2019-03-19T00:23:11.763Z,11.95
2019-03-19T00:25:40.923Z,12.30
2019-03-19T00:28:07.564Z,9.20
2019-03-19T00:30:35.118Z,17.30
2019-03-19T00:33:02.372Z,20.72
2019-03-19T00:35:29.674Z,15.35
2019-03-19T00:37:57.183Z,19.30
2019-03-19T00:40:24.127Z,12.40
2019-03-19T00:42:51.091Z,17.07
2019-03-19T00:45:19.030Z,22.35
2019-03-19T00:47:46.295Z,25.23
2019-03-19T00:50:13.247Z,16.50
2019-03-19T00:52:40.495Z,17.12
2019-03-19T00:55:07.440Z,19.00
2019-03-19T00:57:34.964Z,15.63
2019-03-19T01:00:03.492Z,16.23
2019-03-19T01:02:31.138Z,17.52
2019-03-19T01:04:58.386Z,13.15
2019-03-19T01:07:25.024Z,19.48
2019-03-19T01:09:52.383Z,18.45
2019-03-19T01:12:19.635Z,20.70
2019-03-19T01:14:47.294Z,25.52
2019-03-19T01:17:14.367Z,11.73
2019-03-19T01:19:41.597Z,12.43
2019-03-19T01:22:08.647Z,14.15
2019-03-19T01:24:35.587Z,12.30
2019-03-19T01:27:02.531Z,13.75
2019-03-19T01:29:30.091Z,23.90
2019-03-19T01:31:57.298Z,25.00
2019-03-19T01:34:24.600Z,36.42
2019-03-19T01:36:51.849Z,18.02
2019-03-19T01:39:19.103Z,26.50
2019-03-19T01:41:48.199Z,18.52
2019-03-19T01:44:15.139Z,18.15
2019-03-19T01:46:41.774Z,17.23
2019-03-19T01:49:08.667Z,11.95
2019-03-19T01:51:37.719Z,19.82
2019-03-19T01:54:04.762Z,14.60
2019-03-19T01:56:31.396Z,13.38
2019-03-19T01:58:59.003Z,17.52
2019-03-19T02:01:25.902Z,14.75
2019-03-19T02:03:53.511Z,14.25
2019-03-19T02:06:20.715Z,25.20
2019-03-19T02:08:47.966Z,14.85
2019-03-19T02:11:15.323Z,18.73
2019-03-19T02:13:42.575Z,16.15
2019-03-19T02:16:09.615Z,20.57
2019-03-19T02:18:36.562Z,13.48
2019-03-19T02:21:03.346Z,18.67
2019-03-19T02:23:29.959Z,26.12
2019-03-19T02:25:56.604Z,15.85
2019-03-19T02:28:25.026Z,12.18
2019-03-19T02:30:51.739Z,23.47
2019-03-19T02:33:18.357Z,14.15
2019-03-19T02:35:45.300Z,18.23
2019-03-19T02:38:11.933Z,15.65
2019-03-19T02:40:38.658Z,21.65
2019-03-19T02:43:05.793Z,19.67
2019-03-19T02:45:32.439Z,23.83
2019-03-19T02:47:59.075Z,13.38
2019-03-19T02:50:25.686Z,11.50
2019-03-19T02:52:52.698Z,22.58
2019-03-19T02:55:19.308Z,21.97
2019-03-19T02:57:45.942Z,21.85
2019-03-19T03:00:12.653Z,12.60
2019-03-19T03:02:39.288Z,13.55
2019-03-19T03:05:06.752Z,29.00
2019-03-19T03:07:33.415Z,14.40
2019-03-19T03:10:00.024Z,17.23
2019-03-19T03:12:26.647Z,12.25
2019-03-19T03:14:53.263Z,14.87
2019-03-19T03:17:20.173Z,10.10
2019-03-19T03:19:47.426Z,18.25
2019-03-19T03:22:14.508Z,13.78
2019-03-19T03:24:41.145Z,22.22
2019-03-19T03:27:07.768Z,31.62
2019-03-19T03:29:34.732Z,17.40
2019-03-19T03:32:01.687Z,14.78
2019-03-19T03:34:28.684Z,14.40
2019-03-19T03:36:55.682Z,22.52
2019-03-19T03:39:22.319Z,21.35
2019-03-19T03:41:49.622Z,15.63
2019-03-19T03:44:16.252Z,18.40
2019-03-19T03:46:43.931Z,15.58
2019-03-19T03:49:10.685Z,18.10
2019-03-19T03:51:37.399Z,21.17
2019-03-19T03:54:04.443Z,16.32
2019-03-19T03:56:32.159Z,18.98
2019-03-19T03:59:00.941Z,20.85
2019-03-19T04:01:29.063Z,18.90
2019-03-19T04:03:55.702Z,13.75
2019-03-19T04:06:22.422Z,13.00
2019-03-19T04:08:49.285Z,24.85
2019-03-19T04:11:16.627Z,19.02
2019-03-19T04:13:43.364Z,18.20
2019-03-19T04:16:09.990Z,13.55
2019-03-19T04:18:37.009Z,18.37
2019-03-19T04:21:04.254Z,15.43
2019-03-19T04:23:31.379Z,26.80
2019-03-19T04:25:58.411Z,10.20
2019-03-19T04:28:25.664Z,15.83
2019-03-19T04:30:52.608Z,20.97
2019-03-19T04:33:19.491Z,9.35
2019-03-19T04:35:46.700Z,21.55
2019-03-19T04:38:13.681Z,16.67
2019-03-19T04:40:40.642Z,15.13
2019-03-19T04:43:08.455Z,14.03
2019-03-19T04:45:35.402Z,27.75
2019-03-19T04:48:03.621Z,24.72
2019-03-19T04:50:31.761Z,22.45
2019-03-19T04:52:59.103Z,23.45
2019-03-19T04:55:26.459Z,25.62
2019-03-19T04:57:54.019Z,16.95
2019-03-19T05:00:20.965Z,19.92
2019-03-19T05:02:47.912Z,24.25
2019-03-19T05:05:15.266Z,28.47
2019-03-19T05:07:42.218Z,16.57
2019-03-19T05:10:10.592Z,12.93
2019-03-19T05:12:38.352Z,20.02
2019-03-19T05:15:05.295Z,23.65
2019-03-19T05:17:32.955Z,13.18
2019-03-19T05:20:00.038Z,19.23
2019-03-19T05:22:26.646Z,17.82
2019-03-19T05:24:53.258Z,18.30
2019-03-19T05:27:19.959Z,20.17
2019-03-19T05:29:46.571Z,13.43
2019-03-19T05:32:13.493Z,22.30
2019-03-19T05:34:40.848Z,18.48
2019-03-19T05:37:07.795Z,16.73
2019-03-19T05:39:35.048Z,20.12
2019-03-19T05:42:01.743Z,21.33
2019-03-19T05:44:29.044Z,16.35
2019-03-19T05:46:56.015Z,21.50
2019-03-19T05:49:23.643Z,20.72
2019-03-19T05:51:51.515Z,26.87
2019-03-19T05:54:18.795Z,13.85
2019-03-19T05:56:46.427Z,30.72
2019-03-19T05:59:13.791Z,17.35
2019-03-19T06:01:42.236Z,27.10
2019-03-19T06:04:08.895Z,12.15
2019-03-19T06:06:35.843Z,18.20
2019-03-19T06:09:03.877Z,11.68
2019-03-19T06:11:31.107Z,30.52
2019-03-19T06:13:57.727Z,20.40
2019-03-19T06:16:25.023Z,16.57
2019-03-19T06:18:51.675Z,16.30
2019-03-19T06:21:18.287Z,19.15
2019-03-19T06:23:44.913Z,13.80
2019-03-19T06:26:11.554Z,14.23
2019-03-19T06:28:38.219Z,10.60
2019-03-19T06:31:04.841Z,14.58
2019-03-19T06:33:32.037Z,7.90
2019-03-19T06:35:58.651Z,15.20
2019-03-19T06:38:25.292Z,22.10
2019-03-19T06:40:52.027Z,19.95
2019-03-19T06:43:20.446Z,15.85
2019-03-19T06:45:47.475Z,19.90
2019-03-19T06:48:15.318Z,12.55
2019-03-19T06:50:45.473Z,14.80
2019-03-19T06:53:10.597Z,17.60
2019-03-19T06:55:37.411Z,17.57
2019-03-19T06:58:11.041Z,23.02
2019-03-19T07:00:32.572Z,24.02
2019-03-19T07:02:59.230Z,19.07
2019-03-19T07:05:25.851Z,14.75
2019-03-19T07:07:52.491Z,20.45
2019-03-19T07:10:19.819Z,19.35
2019-03-19T07:12:48.251Z,19.90
2019-03-19T07:15:15.291Z,13.10
2019-03-19T07:17:42.104Z,21.50
2019-03-19T07:20:09.708Z,17.55
2019-03-19T07:22:36.767Z,20.20
2019-03-19T07:25:03.737Z,35.63
2019-03-19T07:27:30.472Z,18.65
2019-03-19T07:29:58.957Z,20.77
2019-03-19T07:32:25.624Z,24.95
2019-03-19T07:34:52.255Z,13.77
2019-03-19T07:37:18.896Z,18.30
2019-03-19T07:39:45.579Z,26.95
2019-03-19T07:42:12.236Z,19.67
2019-03-19T07:44:39.303Z,29.53
2019-03-19T07:47:06.030Z,18.57
2019-03-19T07:49:33.465Z,23.70
2019-03-19T07:52:01.127Z,16.70
2019-03-19T07:54:28.668Z,29.77
2019-03-19T07:56:55.659Z,13.80
2019-03-19T07:59:22.583Z,14.03
2019-03-19T08:01:50.137Z,24.07
2019-03-19T08:04:16.759Z,29.47
2019-03-19T08:06:43.403Z,20.40
2019-03-19T08:09:10.056Z,27.73
2019-03-19T08:11:36.682Z,15.53
2019-03-19T08:14:03.678Z,30.10
2019-03-19T08:16:30.928Z,22.60
2019-03-19T08:18:57.540Z,15.73
2019-03-19T08:21:24.276Z,18.77
2019-03-19T08:23:50.942Z,16.50
2019-03-19T08:26:17.728Z,18.07
2019-03-19T08:28:44.355Z,18.03
2019-03-19T08:31:11.012Z,15.77
2019-03-19T08:33:37.631Z,22.33
2019-03-19T08:36:09.255Z,27.23
2019-03-19T08:38:34.625Z,15.03
2019-03-19T08:41:01.593Z,20.60
2019-03-19T08:43:28.568Z,14.60
2019-03-19T08:45:55.628Z,24.63
2019-03-19T08:48:22.596Z,11.50
2019-03-19T08:50:49.955Z,15.33
2019-03-19T08:53:17.320Z,10.20
2019-03-19T08:55:44.559Z,22.93
2019-03-19T08:58:11.710Z,18.53
2019-03-19T09:00:38.343Z,12.20
2019-03-19T09:03:06.891Z,12.93
2019-03-19T09:05:33.923Z,13.20
2019-03-19T09:08:01.648Z,20.10
2019-03-19T09:10:28.264Z,14.10
2019-03-19T09:12:55.384Z,13.57
2019-03-19T09:15:22.002Z,12.20
2019-03-19T09:17:49.322Z,10.77
2019-03-19T09:20:16.566Z,9.07
2019-03-19T09:22:44.222Z,8.77
2019-03-19T09:25:10.855Z,8.63
2019-03-19T09:27:37.751Z,8.93
2019-03-19T09:30:05.138Z,6.43
2019-03-19T09:32:32.419Z,6.60
2019-03-19T09:34:59.670Z,10.20
2019-03-19T09:37:26.630Z,11.87
2019-03-19T09:39:53.659Z,13.97
2019-03-19T09:42:20.626Z,16.30
2019-03-19T09:44:58.011Z,10.77
2019-03-19T09:47:18.487Z,16.93
2019-03-19T09:49:45.274Z,14.90
2019-03-19T09:52:11.896Z,12.03
2019-03-19T09:54:38.811Z,12.17
2019-03-19T09:57:06.167Z,5.10
2019-03-19T09:59:33.499Z,11.27
2019-03-19T10:02:00.569Z,15.50
2019-03-19T10:04:27.923Z,12.37
2019-03-19T10:07:05.524Z,11.97
2019-03-19T10:09:24.361Z,9.07
2019-03-19T10:11:51.155Z,12.17
2019-03-19T10:14:18.167Z,16.83
2019-03-19T10:16:45.515Z,11.07
2019-03-19T10:19:12.461Z,10.33
2019-03-19T10:21:39.403Z,17.10
2019-03-19T10:24:06.502Z,13.37
2019-03-19T10:26:33.498Z,11.90
2019-03-19T10:29:01.160Z,9.00
2019-03-19T10:31:28.206Z,7.20
2019-03-19T10:33:55.769Z,5.23
2019-03-19T10:36:22.427Z,8.10
2019-03-19T10:38:49.050Z,6.23
2019-03-19T10:41:15.699Z,7.00
2019-03-19T10:43:43.415Z,3.53
2019-03-19T10:46:10.039Z,9.77
2019-03-19T10:48:37.363Z,11.60
2019-03-19T10:51:04.004Z,10.13
2019-03-19T10:53:30.621Z,7.10
2019-03-19T10:55:58.263Z,10.93
2019-03-19T10:58:24.751Z,5.50
2019-03-19T11:00:51.329Z,7.93
2019-03-19T11:03:18.212Z,9.50
2019-03-19T11:05:44.799Z,6.80
2019-03-19T11:08:11.381Z,8.87
2019-03-19T11:10:38.031Z,9.40
2019-03-19T11:13:05.020Z,3.03
2019-03-19T11:15:31.899Z,14.60
2019-03-19T11:17:59.035Z,5.50
2019-03-19T11:20:25.987Z,7.60
2019-03-19T11:22:52.927Z,10.30
2019-03-19T11:25:21.015Z,10.33
2019-03-19T11:27:48.144Z,16.30
2019-03-19T11:30:16.220Z,8.63
2019-03-19T11:32:43.876Z,14.43
2019-03-19T11:35:11.051Z,11.37
2019-03-19T11:37:37.675Z,7.03
2019-03-19T11:40:04.943Z,4.70
2019-03-19T11:42:31.571Z,16.90
2019-03-19T11:44:58.208Z,4.47
2019-03-19T11:47:24.871Z,12.63
2019-03-19T11:49:51.500Z,5.13
2019-03-19T11:52:18.147Z,5.80
2019-03-19T11:54:44.811Z,7.63
2019-03-19T11:57:11.496Z,4.83
2019-03-19T11:59:38.834Z,10.50
2019-03-19T12:02:05.484Z,9.50
2019-03-19T12:04:32.419Z,7.33
2019-03-19T12:06:59.474Z,5.73
2019-03-19T12:09:26.175Z,2.40
2019-03-19T12:11:53.171Z,5.97
2019-03-19T12:14:19.811Z,6.53
2019-03-19T12:16:48.372Z,7.00
2019-03-19T12:19:15.001Z,3.10
2019-03-19T12:21:41.627Z,8.40
2019-03-19T12:24:08.651Z,11.93
2019-03-19T12:26:35.575Z,6.00
2019-03-19T12:29:02.235Z,13.40
2019-03-19T12:31:28.923Z,7.63
2019-03-19T12:33:57.088Z,5.13
2019-03-19T12:36:24.927Z,3.53
2019-03-19T12:38:51.620Z,4.80
2019-03-19T12:41:18.243Z,7.90
2019-03-19T12:43:44.862Z,11.50
2019-03-19T12:46:11.519Z,16.00
2019-03-19T12:48:39.335Z,6.27
2019-03-19T12:51:05.956Z,3.93
2019-03-19T12:53:33.725Z,8.50
2019-03-19T12:56:00.351Z,6.10
2019-03-19T12:58:28.184Z,9.40
2019-03-19T13:00:54.977Z,6.47
2019-03-19T13:03:21.712Z,6.10
2019-03-19T13:05:48.337Z,11.90
2019-03-19T13:08:15.015Z,7.80
2019-03-19T13:10:41.760Z,18.77
2019-03-19T13:13:08.399Z,10.40
2019-03-19T13:15:36.887Z,11.83
2019-03-19T13:18:03.826Z,13.67
2019-03-19T13:20:30.475Z,11.73
2019-03-19T13:22:57.584Z,8.27
2019-03-19T13:25:24.889Z,8.50
2019-03-19T13:27:51.623Z,9.87
2019-03-19T13:30:19.318Z,11.73
2019-03-19T13:32:45.951Z,8.80
2019-03-19T13:35:12.579Z,14.17
2019-03-19T13:37:39.233Z,10.67
2019-03-19T13:40:06.944Z,11.03
2019-03-19T13:42:35.417Z,7.40
2019-03-19T13:45:02.111Z,10.77
2019-03-19T13:47:31.750Z,12.33
2019-03-19T13:49:59.690Z,6.87
2019-03-19T13:52:26.356Z,10.53
2019-03-19T13:54:53.639Z,13.07
2019-03-19T13:57:21.608Z,12.33
2019-03-19T13:59:48.864Z,13.13
2019-03-19T14:02:15.807Z,7.10
2019-03-19T14:04:42.751Z,5.90
2019-03-19T14:07:09.698Z,8.70
2019-03-19T14:09:36.947Z,8.00
2019-03-19T14:12:04.608Z,11.13
2019-03-19T14:14:31.656Z,9.33
2019-03-19T14:17:00.414Z,14.73
2019-03-19T14:19:27.704Z,9.93
2019-03-19T14:21:56.687Z,9.80
2019-03-19T14:24:23.941Z,12.77
2019-03-19T14:26:51.047Z,15.83
2019-03-19T14:29:18.344Z,14.53
2019-03-19T14:31:45.288Z,14.03
2019-03-19T14:34:12.231Z,11.33
2019-03-19T14:36:39.022Z,13.30
2019-03-19T14:39:07.759Z,9.30
2019-03-19T14:41:34.707Z,8.03
2019-03-19T14:44:01.959Z,13.63
2019-03-19T14:46:28.640Z,12.73
2019-03-19T14:48:55.575Z,8.10
2019-03-19T14:51:22.247Z,17.30
2019-03-19T14:53:48.879Z,17.40
2019-03-19T14:56:16.171Z,5.40
2019-03-19T14:58:43.423Z,8.87
2019-03-19T15:01:18.895Z,12.70
2019-03-19T15:03:39.463Z,8.43
2019-03-19T15:06:06.355Z,9.90
2019-03-19T15:08:33.660Z,11.90
2019-03-19T15:11:00.293Z,8.17
2019-03-19T15:13:27.897Z,9.27
2019-03-19T15:15:56.645Z,10.87
2019-03-19T15:18:24.102Z,9.50
2019-03-19T15:20:53.068Z,13.03
2019-03-19T15:23:22.095Z,8.63
2019-03-19T15:25:50.991Z,9.23
2019-03-19T15:28:17.919Z,8.33
2019-03-19T15:30:45.011Z,7.93
2019-03-19T15:33:12.052Z,10.30
2019-03-19T15:35:39.018Z,7.57
2019-03-19T15:38:05.643Z,6.93
2019-03-19T15:40:35.820Z,12.60
2019-03-19T15:43:03.333Z,6.97
2019-03-19T15:45:30.327Z,11.10
2019-03-19T15:47:57.302Z,7.87
2019-03-19T15:50:24.351Z,10.80
2019-03-19T15:52:51.100Z,11.30
2019-03-19T15:55:17.836Z,11.73
2019-03-19T15:57:44.511Z,9.37
2019-03-19T16:00:12.103Z,8.50
2019-03-19T16:02:39.951Z,12.37
2019-03-19T16:05:07.223Z,10.23
2019-03-19T16:07:34.940Z,7.60
2019-03-19T16:10:01.945Z,6.43
2019-03-19T16:12:29.694Z,4.37
2019-03-19T16:14:56.734Z,10.67
2019-03-19T16:17:23.351Z,6.37
2019-03-19T16:19:50.014Z,8.40
2019-03-19T16:22:16.667Z,4.10
2019-03-19T16:24:43.282Z,12.23
2019-03-19T16:27:09.931Z,9.17
2019-03-19T16:29:37.758Z,7.17
2019-03-19T16:32:04.722Z,9.90
2019-03-19T16:34:31.374Z,10.40
2019-03-19T16:36:57.990Z,8.67
2019-03-19T16:39:24.642Z,7.90
2019-03-19T16:41:51.536Z,9.00
2019-03-19T16:44:18.455Z,9.17
2019-03-19T16:46:46.983Z,8.83
2019-03-19T16:49:14.063Z,12.00
2019-03-19T16:51:41.327Z,8.67
2019-03-19T16:54:08.670Z,7.00
2019-03-19T16:56:35.363Z,6.23
2019-03-19T16:59:02.356Z,6.13
2019-03-19T17:01:29.403Z,5.73
2019-03-19T17:03:56.395Z,10.77
2019-03-19T17:06:23.043Z,4.63
2019-03-19T17:08:50.187Z,8.50
2019-03-19T17:11:18.667Z,6.97
2019-03-19T17:13:45.401Z,7.97
2019-03-19T17:16:12.071Z,6.33
2019-03-19T17:18:39.847Z,13.13
2019-03-19T17:21:08.372Z,7.10
2019-03-19T17:23:37.746Z,6.87
2019-03-19T17:26:04.903Z,11.87
2019-03-19T17:28:32.143Z,8.70
2019-03-19T17:31:00.421Z,8.17
2019-03-19T17:33:27.779Z,7.03
2019-03-19T17:35:54.679Z,8.93
2019-03-19T17:38:21.312Z,8.93
2019-03-19T17:40:48.506Z,9.60
2019-03-19T17:43:15.134Z,13.30
2019-03-19T17:45:41.749Z,7.80
2019-03-19T17:48:16.017Z,8.30
2019-03-19T17:50:37.615Z,4.77
2019-03-19T17:53:04.900Z,12.90
2019-03-19T17:55:32.324Z,9.87
2019-03-19T17:58:00.251Z,8.53
2019-03-19T18:00:27.203Z,10.03
2019-03-19T18:02:54.392Z,5.10
2019-03-19T18:05:21.005Z,6.07
2019-03-19T18:07:47.971Z,8.83
2019-03-19T18:10:14.615Z,7.10
2019-03-19T18:12:41.350Z,8.17
2019-03-19T18:15:08.218Z,10.47
2019-03-19T18:17:34.915Z,8.67
2019-03-19T18:20:01.989Z,5.93
2019-03-19T18:22:30.564Z,9.33
2019-03-19T18:24:58.055Z,11.70
2019-03-19T18:27:25.272Z,7.57
2019-03-19T18:29:52.423Z,5.57
2019-03-19T18:32:19.181Z,2.70
2019-03-19T18:34:46.107Z,11.43
2019-03-19T18:37:12.754Z,6.00
2019-03-19T18:39:39.418Z,12.27
2019-03-19T18:42:06.147Z,15.57
2019-03-19T18:44:33.104Z,5.90
2019-03-19T18:47:00.956Z,5.77
2019-03-19T18:49:27.698Z,11.40
2019-03-19T18:51:56.463Z,5.30
2019-03-19T18:54:23.131Z,9.27
2019-03-19T18:56:49.767Z,9.38
2019-03-19T18:59:16.395Z,4.60
2019-03-19T19:01:43.083Z,6.60
2019-03-19T19:04:09.931Z,7.83
2019-03-19T19:06:36.558Z,5.93
2019-03-19T19:09:05.211Z,9.33
2019-03-19T19:11:32.135Z,10.73
2019-03-19T19:13:59.067Z,11.22
2019-03-19T19:16:26.159Z,5.03
2019-03-19T19:18:53.269Z,16.33
2019-03-19T19:21:20.312Z,16.10
2019-03-19T19:23:47.708Z,7.35
2019-03-19T19:26:14.452Z,12.63
2019-03-19T19:28:41.087Z,12.43
2019-03-19T19:31:07.766Z,10.20
2019-03-19T19:33:34.487Z,8.70
2019-03-19T19:36:01.291Z,7.57
2019-03-19T19:38:28.420Z,13.10
2019-03-19T19:40:55.151Z,10.37
2019-03-19T19:43:22.516Z,11.80
2019-03-19T19:45:49.296Z,8.13
2019-03-19T19:48:15.992Z,11.47
2019-03-19T19:50:43.373Z,10.90
2019-03-19T19:53:10.635Z,12.23
2019-03-19T19:55:39.482Z,7.47
2019-03-19T19:58:07.086Z,16.93
2019-03-19T20:00:34.738Z,13.50
2019-03-19T20:03:11.547Z,9.70
2019-03-19T20:05:30.083Z,13.50
2019-03-19T20:07:57.113Z,12.83
2019-03-19T20:10:24.463Z,11.10
2019-03-19T20:12:51.505Z,18.37
2019-03-19T20:15:18.745Z,12.90
2019-03-19T20:17:46.339Z,13.07
2019-03-19T20:20:16.359Z,12.10
2019-03-19T20:22:45.033Z,11.83
2019-03-19T20:25:11.840Z,8.03
2019-03-19T20:27:39.203Z,16.97
2019-03-19T20:30:08.854Z,11.93
2019-03-19T20:32:36.148Z,15.27
2019-03-19T20:35:04.176Z,13.57
2019-03-19T20:37:32.201Z,15.13
2019-03-19T20:39:59.241Z,10.80
2019-03-19T20:42:26.180Z,10.97
2019-03-19T20:44:53.130Z,15.00
2019-03-19T20:47:21.096Z,20.77
2019-03-19T20:49:48.140Z,15.03
2019-03-19T20:52:16.810Z,10.47
2019-03-19T20:54:43.463Z,13.53
2019-03-19T20:57:10.868Z,20.70
2019-03-19T20:59:37.757Z,26.30
2019-03-19T21:02:04.703Z,13.13
2019-03-19T21:04:31.949Z,20.57
2019-03-19T21:06:58.541Z,49.60
2019-03-19T21:09:25.642Z,33.43
2019-03-19T21:11:53.329Z,50.67
2019-03-19T21:14:20.261Z,30.13
2019-03-19T21:16:46.958Z,45.13
2019-03-19T21:19:13.990Z,49.17
2019-03-19T21:21:40.653Z,30.07
2019-03-19T21:24:07.252Z,25.53
2019-03-19T21:26:33.881Z,31.43
2019-03-19T21:29:00.890Z,23.90
2019-03-19T21:31:27.684Z,17.83
2019-03-19T21:33:54.339Z,24.53
2019-03-19T21:36:21.235Z,11.60
2019-03-19T21:38:48.183Z,16.97
2019-03-19T21:41:15.848Z,12.67
2019-03-19T21:43:42.478Z,17.33
2019-03-19T21:46:09.516Z,10.80
2019-03-19T21:48:36.566Z,18.53
2019-03-19T21:51:03.198Z,13.33
2019-03-19T21:53:29.814Z,8.73
2019-03-19T21:55:57.675Z,17.00
2019-03-19T21:58:24.291Z,25.33
2019-03-19T22:00:50.931Z,19.33
2019-03-19T22:03:18.080Z,14.83
2019-03-19T22:05:45.167Z,13.07
2019-03-19T22:08:11.797Z,19.83
2019-03-19T22:10:38.444Z,9.40
2019-03-19T22:13:05.112Z,20.13
2019-03-19T22:15:31.746Z,11.23
2019-03-19T22:17:58.515Z,13.43
2019-03-19T22:20:25.432Z,29.57
2019-03-19T22:22:52.459Z,19.60
2019-03-19T22:25:19.323Z,15.00
2019-03-19T22:27:46.184Z,15.10
2019-03-19T22:30:13.903Z,14.13
2019-03-19T22:32:40.987Z,16.93
2019-03-19T22:35:09.243Z,10.27
2019-03-19T22:37:36.603Z,18.77
2019-03-19T22:40:06.601Z,14.87
2019-03-19T22:42:33.543Z,8.93
2019-03-19T22:45:00.344Z,12.60
2019-03-19T22:47:27.191Z,11.97
2019-03-19T22:49:54.181Z,11.03
2019-03-19T22:52:20.907Z,17.17
2019-03-19T22:54:47.860Z,12.73
2019-03-19T22:57:15.927Z,10.43
2019-03-19T22:59:42.879Z,10.87
2019-03-19T23:02:09.969Z,10.40
2019-03-19T23:04:37.785Z,13.53
2019-03-19T23:07:04.731Z,19.70
2019-03-19T23:09:32.189Z,15.23
2019-03-19T23:11:58.815Z,15.58
2019-03-19T23:14:25.449Z,8.90
2019-03-19T23:16:52.155Z,10.43
2019-03-19T23:19:19.983Z,11.90
2019-03-19T23:21:46.918Z,9.15
2019-03-19T23:24:13.799Z,10.15
2019-03-19T23:26:41.009Z,9.48
2019-03-19T23:29:07.651Z,11.80
2019-03-19T23:31:35.103Z,11.55
2019-03-19T23:34:02.179Z,8.28
2019-03-19T23:36:30.736Z,12.23
2019-03-19T23:38:58.296Z,5.25
2019-03-19T23:41:25.368Z,8.73
2019-03-19T23:43:52.279Z,9.68
2019-03-19T23:46:19.387Z,9.80
2019-03-19T23:48:46.790Z,4.45
2019-03-19T23:51:13.867Z,15.18
2019-03-19T23:53:40.984Z,12.13
2019-03-19T23:56:08.343Z,9.80
2019-03-19T23:58:35.659Z,8.35
